Bognor Regis, United Kingdom
Current Conditions -  °F | °C
As of 7:50 PM on Friday 21 Nov 2014 (Local Time) from EGKA Reporting Station
Broken Clouds Broken Clouds  
Wind Chill: 52°   Ceiling: 1800
Heat Index: 52°   Visibility: 4mi
Dew Point: 48°   Wind: 13mph
Humidity: 88%   Direction: 100°E
Pressure: 29.91"   Gusts: NA
Location:  50.79°N, 0.68°W
Report Text: EGKA 211950Z 10011KT 7000 BKN018 11/09 Q1013
Loading
Personal Weather Stations






























Interactive Weather Map New forecast layout! Learn more

10-Day Weather Forecast

Advertisements
Track Severe Weather on mobile